SON weather

Santo Pekoa International Airport
Luganville, Sanma, Vanuatu

Public forecast

Using degrees Celsius for public forecast. Weather courtesy of forecast.io.

METAR (pilot weather report)

Report is more than 2 hours old.

Retrieved 2019/06/25 09:00 UTC (3 hours ago):

NVSS 250900Z 11003KT 9999 SCT022 BKN290 26/25 Q1014

TAF (pilot weather forecast)

Retrieved 2019/06/25 06:30 UTC (5 hours ago):

TAF NVSS 250430Z 2506/2606 09010KT 9999 SCT020 PROB40 INTER 2509/2512 9000 -SHRA BKN018 BECMG 2508/2510 09007KT